Unalaska, AK

1:36 PM AKDT on September 16, 2014 (GMT -0800)
Dutch Harbor | Change Station
CLOSE
Current Station
Airport
Location: Dutch Harbor,
Elevation: 13 ft
Nearby Weather Stations

Elev 13 ft 53.90 °N, 166.54 °W | Updated 40 minutes ago

Mostly Cloudy
Mostly Cloudy
52 °F
Feels Like 52 °F
N
16
Wind Variable Wind from NW
Gusts 24 mph

Today
High -- | Low -- °F
--% Chance of Precip.
Yesterday
High -- | Low -- °F
Precip. -- in
8:42 AM 9:19 PM
Last Quarter, 42% visible
Pressure 29.49 in
Visibility 10.0 miles
Clouds Mostly Cloudy 3300 ft
Dew Point 42 °F
Humidity 69%
Rainfall 0.09 in
Snow Depth 0 in , 0 in , 2 in
UV 2 out of 12
Pollen Not available.
Air Quality Not available.
Flu Activity Not available.
METAR PADU 162056Z 31014G21KT 10SM BKN033 11/06 A2948 RMK AO2 SLP986 MH T01110056 51005

More Conditions Fewer Conditions

Pressure 29.49 in
Visibility 10.0 miles
Clouds Mostly Cloudy 3300 ft
Dew Point 42 °F
Humidity 69%
Rainfall 0.09 in
Snow Depth 0 in , 0 in , 2 in
UV 2 out of 12
Pollen Not available.
Air Quality Not available.
Flu Activity Not available.
METAR PADU 162056Z 31014G21KT 10SM BKN033 11/06 A2948 RMK AO2 SLP986 MH T01110056 51005

More Conditions Fewer Conditions

10-Day Weather Forecast

Almanac

Astronomy

Sep. 16, 2014 Rise Set
Actual Time 8:42 AM AKDT 9:19 PM AKDT
Civil Twilight 8:06 AM AKDT 9:55 PM AKDT
Nautical Twilight 7:24 AM AKDT 10:37 PM AKDT
Astronomical Twilight 6:38 AM AKDT 11:22 PM AKDT
Moon 1:23 AM AKDT 5:31 PM AKDT
Length of Visible Light 13h 48m
Length of Day
12h 37m
Tomorrow will be 4m 15s shorter.
Last Quarter, 42% of the Moon is Illuminated
Today
Last Quarter
Sep 24
New
Oct 1
First Quarter
Oct 8
Full
Oct 15
Last Quarter

Today's Extremes

State Highs State Lows

Community

WunderPhotos

Upload Photos

1,753,895 photos uploaded!

Nearby

Snow Depth

Station Depth Elevation
Summit Creek 0 in 1400 ft
Upper Tsaina River 0 in 1750 ft
Turnagain Pass 2 in 1880 ft
Nuka Glacier 164 in 1250 ft
Long Lake 0 in 820 ft

Earthquake Activity

City Distance Mag. Time & Date
No recent earthquake activity has been reported nearby.
Minimum magnitude displayed is 2.5.

Coastal Water Temperatures

Place Temperature
No Stations Reporting

Nearby Weather Stations